Virtual Washington ARTCC

Weather

KBWI 151354Z 07011KT 2SM -RA BR OVC004 11/11 A3004 RMK AO2 SLP172 P0005 T01110111
KDCA 151437Z 01008KT 1 3/4SM R01/5500VP6000FT +RA BR OVC006 12/11 A3004 RMK AO2 P0013 T01170106
KIAD 151435Z 34008KT 2SM RA BR OVC004 07/07 A3005 RMK AO2 P0013 T00720072
KORF 151442Z 19007KT 2SM RA BR BKN005 OVC011 18/18 A2996 RMK AO2 RAB1357 P0008 T01780178
KRDU 151402Z 04005KT 1 1/2SM -RA BR BKN004 BKN009 OVC030 06/06 A3000 RMK AO2 SFC VIS 3 P0000 T00610061 $

TOP FIVE CONTROLLERS


We're sorry, this feature is currently unavailable.

Events



ZDC Activity

No controllers online.

News



The information contained on all pages of this website is to be used for flight simulation purposes only on the VATSIM network. It is not intended nor should it be used for real world navigation.This site is not affiliated with the FAA, the actual Washington Center or any governing aviation body. All content contained herein is approved only for use on the VATSIM network. ©2016 Virtual Washington ARTCC -- Source Code © 2016-2017 W. Guisbond and R. Rump.
By using this website you agree to all VATSIM Privacy Regulations as can be found on https://www.vatsim.net/documents/privacy-policy. This website uses cookie$